createdAt,value
2022-10-17T00:01:00.764Z,7.32
2022-10-17T00:04:02.537Z,6.78
2022-10-17T00:07:04.244Z,7.13
2022-10-17T00:10:07.996Z,7.05
2022-10-17T00:13:10.056Z,7.47
2022-10-17T00:16:12.658Z,7.45
2022-10-17T00:19:14.308Z,6.93
2022-10-17T00:22:16.050Z,6.47
2022-10-17T00:25:18.604Z,6.38
2022-10-17T00:28:20.274Z,6.00
2022-10-17T00:31:23.618Z,6.10
2022-10-17T00:34:25.946Z,6.22
2022-10-17T00:37:28.035Z,6.00
2022-10-17T00:40:29.717Z,6.18
2022-10-17T00:44:03.263Z,6.28
2022-10-17T00:47:09.424Z,6.15
2022-10-17T00:50:12.904Z,6.10
2022-10-17T00:56:17.289Z,5.75
2022-10-17T00:59:21.753Z,5.37
2022-10-17T01:02:23.940Z,5.57
2022-10-17T01:05:26.092Z,5.65
2022-10-17T01:08:27.956Z,6.10
2022-10-17T01:11:32.438Z,5.80
2022-10-17T01:15:05.268Z,5.43
2022-10-17T01:18:29.010Z,5.80
2022-10-17T01:21:42.101Z,5.53
2022-10-17T01:25:03.562Z,5.53
2022-10-17T01:28:17.106Z,5.75
2022-10-17T01:31:23.805Z,5.43
2022-10-17T01:34:37.904Z,5.22
2022-10-17T01:37:50.883Z,5.15
2022-10-17T01:41:02.411Z,5.70
2022-10-17T01:44:11.937Z,5.18
2022-10-17T01:47:21.563Z,5.80
2022-10-17T01:50:38.828Z,5.63
2022-10-17T01:53:47.025Z,5.53
2022-10-17T01:56:53.190Z,5.15
2022-10-17T01:59:56.541Z,4.78
2022-10-17T02:06:06.810Z,5.80
2022-10-17T02:09:21.193Z,4.82
2022-10-17T02:12:49.849Z,5.00
2022-10-17T02:16:14.105Z,5.00
2022-10-17T02:19:59.687Z,5.45
2022-10-17T02:23:10.922Z,5.18
2022-10-17T02:26:26.039Z,5.15
2022-10-17T02:29:43.696Z,5.07
2022-10-17T02:33:05.574Z,5.10
2022-10-17T02:36:17.158Z,5.00
2022-10-17T02:39:22.091Z,4.72
2022-10-17T02:42:26.399Z,4.60
2022-10-17T02:45:30.216Z,4.60
2022-10-17T02:48:38.760Z,4.63
2022-10-17T02:51:52.899Z,5.18
2022-10-17T02:55:08.983Z,4.85
2022-10-17T02:58:18.152Z,4.70
2022-10-17T03:01:20.577Z,4.68
2022-10-17T03:04:22.380Z,4.80
2022-10-17T03:07:24.332Z,4.65
2022-10-17T03:10:25.987Z,4.88
2022-10-17T03:13:28.604Z,4.70
2022-10-17T03:16:30.309Z,4.73
2022-10-17T03:19:32.009Z,4.55
2022-10-17T03:22:34.284Z,4.80
2022-10-17T03:25:36.167Z,4.78
2022-10-17T03:28:37.978Z,4.43
2022-10-17T03:31:39.790Z,4.90
2022-10-17T03:34:41.567Z,5.18
2022-10-17T03:37:43.373Z,4.72
2022-10-17T03:40:45.062Z,4.60
2022-10-17T03:43:46.823Z,4.60
2022-10-17T03:46:48.766Z,4.78
2022-10-17T03:49:50.516Z,4.53
2022-10-17T03:52:52.161Z,4.82
2022-10-17T03:55:54.042Z,4.60
2022-10-17T03:58:57.042Z,4.55
2022-10-17T04:01:58.921Z,5.15
2022-10-17T04:05:01.112Z,4.85
2022-10-17T04:08:04.814Z,4.35
2022-10-17T04:11:08.655Z,4.28
2022-10-17T04:14:10.838Z,4.80
2022-10-17T04:17:12.566Z,4.40
2022-10-17T04:20:14.491Z,4.57
2022-10-17T04:23:16.319Z,4.47
2022-10-17T04:26:18.033Z,4.75
2022-10-17T04:29:19.852Z,4.35
2022-10-17T04:32:21.752Z,4.65
2022-10-17T04:35:23.676Z,4.22
2022-10-17T04:38:28.471Z,4.20
2022-10-17T04:41:30.494Z,4.40
2022-10-17T04:44:33.794Z,4.20
2022-10-17T04:47:35.527Z,4.25
2022-10-17T04:50:37.280Z,4.50
2022-10-17T04:53:40.392Z,4.63
2022-10-17T04:56:42.365Z,4.28
2022-10-17T04:59:44.887Z,4.40
2022-10-17T05:02:47.252Z,4.67
2022-10-17T05:05:49.249Z,4.80
2022-10-17T05:08:51.325Z,4.43
2022-10-17T05:11:53.191Z,4.75
2022-10-17T05:14:54.889Z,4.50
2022-10-17T05:17:57.510Z,4.15
2022-10-17T05:20:59.276Z,4.10
2022-10-17T05:24:00.937Z,4.80
2022-10-17T05:27:02.814Z,4.60
2022-10-17T05:30:05.457Z,4.10
2022-10-17T05:33:07.379Z,4.57
2022-10-17T05:36:09.856Z,4.30
2022-10-17T05:39:14.886Z,4.23
2022-10-17T05:42:16.579Z,3.95
2022-10-17T05:45:18.718Z,4.00
2022-10-17T05:48:21.630Z,4.25
2022-10-17T05:51:23.294Z,4.43
2022-10-17T05:54:25.364Z,4.18
2022-10-17T05:57:28.343Z,3.70
2022-10-17T06:00:30.449Z,4.10
2022-10-17T06:03:33.608Z,4.15
2022-10-17T06:06:38.089Z,4.13
2022-10-17T06:09:40.187Z,4.10
2022-10-17T06:12:42.731Z,4.05
2022-10-17T06:15:45.235Z,4.00
2022-10-17T06:21:53.846Z,4.10
2022-10-17T06:24:55.536Z,3.75
2022-10-17T06:27:57.230Z,3.95
2022-10-17T06:30:58.934Z,4.40
2022-10-17T06:34:00.889Z,3.72
2022-10-17T06:37:02.571Z,4.30
2022-10-17T06:40:05.298Z,4.45
2022-10-17T06:43:07.354Z,4.10
2022-10-17T06:46:09.339Z,4.20
2022-10-17T06:49:11.179Z,4.43
2022-10-17T06:52:13.062Z,4.20
2022-10-17T06:55:16.924Z,3.70
2022-10-17T06:58:22.389Z,4.40
2022-10-17T07:01:24.334Z,4.10
2022-10-17T07:04:26.231Z,4.28
2022-10-17T07:07:31.634Z,3.63
2022-10-17T07:10:38.233Z,4.43
2022-10-17T07:13:40.515Z,3.78
2022-10-17T07:16:42.295Z,3.85
2022-10-17T07:19:44.061Z,3.88
2022-10-17T07:22:45.730Z,4.47
2022-10-17T07:25:47.537Z,3.90
2022-10-17T07:28:53.112Z,3.80
2022-10-17T07:31:55.007Z,3.90
2022-10-17T07:34:57.000Z,3.75
2022-10-17T07:37:58.895Z,3.78
2022-10-17T07:41:02.913Z,3.78
2022-10-17T07:44:04.897Z,3.50
2022-10-17T07:47:06.658Z,3.67
2022-10-17T07:50:08.881Z,3.30
2022-10-17T07:53:10.924Z,3.33
2022-10-17T07:56:14.313Z,3.55
2022-10-17T08:02:25.420Z,3.30
2022-10-17T08:05:27.242Z,3.25
2022-10-17T08:08:29.902Z,3.80
2022-10-17T08:11:31.642Z,3.40
2022-10-17T08:14:33.453Z,3.58
2022-10-17T08:17:36.596Z,3.78
2022-10-17T08:20:38.327Z,3.42
2022-10-17T08:23:40.715Z,3.55
2022-10-17T08:26:43.530Z,3.30
2022-10-17T08:29:48.828Z,4.00
2022-10-17T08:32:50.698Z,3.40
2022-10-17T08:35:52.719Z,3.58
2022-10-17T08:38:54.542Z,3.65
2022-10-17T08:42:16.408Z,3.47
2022-10-17T08:45:30.265Z,3.35
2022-10-17T08:48:42.724Z,3.53
2022-10-17T08:51:55.884Z,3.47
2022-10-17T08:54:57.890Z,3.50
2022-10-17T08:58:00.756Z,4.30
2022-10-17T09:01:27.511Z,3.63
2022-10-17T09:04:47.951Z,3.40
2022-10-17T09:08:14.463Z,3.70
2022-10-17T09:11:39.151Z,3.10
2022-10-17T09:14:43.896Z,3.78
2022-10-17T09:17:57.137Z,3.63
2022-10-17T09:21:23.199Z,4.00
2022-10-17T09:24:39.149Z,4.47
2022-10-17T09:27:45.625Z,3.97
2022-10-17T09:30:56.997Z,4.10
2022-10-17T09:34:02.328Z,3.88
2022-10-17T09:37:09.581Z,3.72
2022-10-17T09:40:24.218Z,3.63
2022-10-17T09:43:26.715Z,3.70
2022-10-17T09:46:38.065Z,4.10
2022-10-17T09:49:43.442Z,3.47
2022-10-17T09:52:47.793Z,3.42
2022-10-17T09:55:56.201Z,3.53
2022-10-17T09:58:59.126Z,3.85
2022-10-17T10:02:12.691Z,4.18
2022-10-17T10:05:20.570Z,4.18
2022-10-17T10:08:25.697Z,3.88
2022-10-17T10:11:49.846Z,3.75
2022-10-17T10:14:54.690Z,4.13
2022-10-17T10:17:57.322Z,3.80
2022-10-17T10:21:20.669Z,3.90
2022-10-17T10:24:26.933Z,3.88
2022-10-17T10:30:36.202Z,4.32
2022-10-17T10:33:45.898Z,4.10
2022-10-17T10:36:56.531Z,3.70
2022-10-17T10:40:04.316Z,4.38
2022-10-17T10:43:06.584Z,4.13
2022-10-17T10:46:17.470Z,4.50
2022-10-17T10:49:30.850Z,3.90
2022-10-17T10:52:46.349Z,4.25
2022-10-17T10:55:53.379Z,4.15
2022-10-17T10:59:03.159Z,3.67
2022-10-17T11:02:14.973Z,3.80
2022-10-17T11:05:21.095Z,3.95
2022-10-17T11:09:14.192Z,4.28
2022-10-17T11:12:21.800Z,3.65
2022-10-17T11:15:33.826Z,3.28
2022-10-17T11:18:55.004Z,4.22
2022-10-17T11:22:15.743Z,3.92
2022-10-17T11:25:25.367Z,3.22
2022-10-17T11:28:27.784Z,3.20
2022-10-17T11:31:34.735Z,2.90
2022-10-17T11:34:44.112Z,3.65
2022-10-17T11:37:53.689Z,3.17
2022-10-17T11:40:58.795Z,3.53
2022-10-17T11:44:25.341Z,3.33
2022-10-17T11:47:30.111Z,3.30
2022-10-17T11:54:06.869Z,3.50
2022-10-17T11:57:39.817Z,3.70
2022-10-17T12:01:01.599Z,3.63
2022-10-17T12:04:55.340Z,3.25
2022-10-17T12:08:10.520Z,3.15
2022-10-17T12:11:24.025Z,3.15
2022-10-17T12:14:46.916Z,3.25
2022-10-17T12:18:01.015Z,3.65
2022-10-17T12:21:03.422Z,3.25
2022-10-17T12:24:05.285Z,3.50
2022-10-17T12:27:31.946Z,3.20
2022-10-17T12:30:35.017Z,3.33
2022-10-17T12:33:51.879Z,3.65
2022-10-17T12:36:53.715Z,3.50
2022-10-17T12:39:55.421Z,3.00
2022-10-17T12:42:57.074Z,3.35
2022-10-17T12:46:03.775Z,3.05
2022-10-17T12:49:38.503Z,3.70
2022-10-17T12:52:40.500Z,3.30
2022-10-17T12:55:42.488Z,3.45
2022-10-17T12:58:50.216Z,3.55
2022-10-17T13:01:57.557Z,3.53
2022-10-17T13:05:08.073Z,3.35
2022-10-17T13:08:27.344Z,4.00
2022-10-17T13:11:32.337Z,3.05
2022-10-17T13:14:34.772Z,3.30
2022-10-17T13:17:38.744Z,3.08
2022-10-17T13:20:43.485Z,3.75
2022-10-17T13:23:45.451Z,3.58
2022-10-17T13:26:47.482Z,3.70
2022-10-17T13:29:49.547Z,3.45
2022-10-17T13:32:51.744Z,3.80
2022-10-17T13:36:00.573Z,3.70
2022-10-17T13:39:12.192Z,3.60
2022-10-17T13:42:39.125Z,3.63
2022-10-17T13:45:51.565Z,3.70
2022-10-17T13:48:53.685Z,3.85
2022-10-17T13:51:57.838Z,3.90
2022-10-17T13:55:17.480Z,3.80
2022-10-17T13:58:20.535Z,3.58
2022-10-17T14:01:22.776Z,3.75
2022-10-17T14:04:24.493Z,4.40
2022-10-17T14:08:10.130Z,4.38
2022-10-17T14:11:24.108Z,4.18
2022-10-17T14:14:26.892Z,4.05
2022-10-17T14:17:29.841Z,3.70
2022-10-17T14:21:31.689Z,3.92
2022-10-17T14:24:27.063Z,3.90
2022-10-17T14:33:57.905Z,4.40
2022-10-17T14:37:00.236Z,3.83
2022-10-17T14:40:04.883Z,3.88
2022-10-17T14:43:06.983Z,3.92
2022-10-17T14:46:16.868Z,3.95
2022-10-17T14:49:27.503Z,3.85
2022-10-17T14:52:31.269Z,4.03
2022-10-17T14:55:37.870Z,3.88
2022-10-17T14:58:40.043Z,3.30
2022-10-17T15:01:41.747Z,3.40
2022-10-17T15:04:43.724Z,3.17
2022-10-17T15:07:45.627Z,3.22
2022-10-17T15:10:49.619Z,3.75
2022-10-17T15:13:52.279Z,3.80
2022-10-17T15:16:54.027Z,3.95
2022-10-17T15:19:57.012Z,4.18
2022-10-17T15:23:00.918Z,3.72
2022-10-17T15:26:02.681Z,2.92
2022-10-17T15:29:05.021Z,3.40
2022-10-17T15:32:06.745Z,2.67
2022-10-17T15:35:09.213Z,3.30
2022-10-17T15:38:15.930Z,3.40
2022-10-17T15:41:17.943Z,3.63
2022-10-17T15:44:19.744Z,3.33
2022-10-17T15:47:29.178Z,2.90
2022-10-17T15:50:31.489Z,3.33
2022-10-17T15:53:33.386Z,3.60
2022-10-17T15:56:40.196Z,3.40
2022-10-17T15:59:41.972Z,3.13
2022-10-17T16:02:44.834Z,3.20
2022-10-17T16:05:46.620Z,3.15
2022-10-17T16:08:49.544Z,2.80
2022-10-17T16:11:51.221Z,2.65
2022-10-17T16:14:53.136Z,2.80
2022-10-17T16:17:57.233Z,2.90
2022-10-17T16:20:58.976Z,3.08
2022-10-17T16:24:01.011Z,2.90
2022-10-17T16:27:02.768Z,3.65
2022-10-17T16:30:06.559Z,3.30
2022-10-17T16:33:09.714Z,3.33
2022-10-17T16:36:11.446Z,3.10
2022-10-17T16:39:13.102Z,2.72
2022-10-17T16:42:14.851Z,3.50
2022-10-17T16:45:19.342Z,3.45
2022-10-17T16:48:22.381Z,2.65
2022-10-17T16:51:26.224Z,2.30
2022-10-17T16:54:27.955Z,2.80
2022-10-17T16:57:30.831Z,2.72
2022-10-17T17:00:33.007Z,2.80
2022-10-17T17:03:37.210Z,2.60
2022-10-17T17:06:38.984Z,2.55
2022-10-17T17:09:40.828Z,2.03
2022-10-17T17:12:42.774Z,1.85
2022-10-17T17:18:49.175Z,1.90
2022-10-17T17:21:51.099Z,1.73
2022-10-17T17:24:52.977Z,2.00
2022-10-17T17:27:54.671Z,2.22
2022-10-17T17:30:56.656Z,2.22
2022-10-17T17:33:58.938Z,1.75
2022-10-17T17:37:00.997Z,2.05
2022-10-17T17:40:03.003Z,1.58
2022-10-17T17:43:05.120Z,1.67
2022-10-17T17:46:08.465Z,1.42
2022-10-17T17:49:11.569Z,1.40
2022-10-17T17:52:13.367Z,1.50
2022-10-17T17:55:15.239Z,2.10
2022-10-17T17:58:18.553Z,1.90
2022-10-17T18:01:22.775Z,2.13
2022-10-17T18:04:24.478Z,1.90
2022-10-17T18:07:26.146Z,1.98
2022-10-17T18:10:29.569Z,1.55
2022-10-17T18:16:35.561Z,1.83
2022-10-17T18:19:37.421Z,1.30
2022-10-17T18:22:39.133Z,1.30
2022-10-17T18:25:41.128Z,1.33
2022-10-17T18:28:43.594Z,1.42
2022-10-17T18:31:45.379Z,1.23
2022-10-17T18:34:47.291Z,2.50
2022-10-17T18:37:49.905Z,3.65
2022-10-17T18:41:05.870Z,3.28
2022-10-17T18:44:07.869Z,3.75
2022-10-17T18:47:10.716Z,9.15
2022-10-17T18:50:12.517Z,12.43
2022-10-17T18:53:14.619Z,17.95
2022-10-17T18:56:17.550Z,15.05
2022-10-17T18:59:20.440Z,5.82
2022-10-17T19:02:22.677Z,2.33
2022-10-17T19:05:24.338Z,1.65
2022-10-17T19:08:26.058Z,1.63
2022-10-17T19:11:30.389Z,2.00
2022-10-17T19:14:32.294Z,2.10
2022-10-17T19:17:34.191Z,1.58
2022-10-17T19:20:36.181Z,1.60
2022-10-17T19:23:38.438Z,1.38
2022-10-17T19:26:41.651Z,1.50
2022-10-17T19:29:44.067Z,1.42
2022-10-17T19:32:45.977Z,1.48
2022-10-17T19:35:56.680Z,1.90
2022-10-17T19:38:58.941Z,1.90
2022-10-17T19:42:05.904Z,1.98
2022-10-17T19:45:09.537Z,2.60
2022-10-17T19:48:11.357Z,3.00
2022-10-17T19:51:16.182Z,2.38
2022-10-17T19:54:20.216Z,2.80
2022-10-17T19:57:22.414Z,3.13
2022-10-17T20:00:24.112Z,2.88
2022-10-17T20:03:26.121Z,2.85
2022-10-17T20:06:28.024Z,2.72
2022-10-17T20:09:30.022Z,2.15
2022-10-17T20:12:33.060Z,2.17
2022-10-17T20:15:35.353Z,2.30
2022-10-17T20:18:38.108Z,2.55
2022-10-17T20:21:40.289Z,3.03
2022-10-17T20:24:42.076Z,2.97
2022-10-17T20:27:43.844Z,2.50
2022-10-17T20:30:46.462Z,2.63
2022-10-17T20:33:48.465Z,2.80
2022-10-17T20:36:50.419Z,2.70
2022-10-17T20:40:10.686Z,2.33
2022-10-17T20:43:14.323Z,2.60
2022-10-17T20:46:34.909Z,2.28
2022-10-17T20:49:37.505Z,2.40
2022-10-17T20:52:39.420Z,2.55
2022-10-17T20:55:41.892Z,2.72
2022-10-17T20:58:44.022Z,2.50
2022-10-17T21:01:46.866Z,2.55
2022-10-17T21:04:50.005Z,3.38
2022-10-17T21:07:51.896Z,3.13
2022-10-17T21:10:53.814Z,3.63
2022-10-17T21:14:01.192Z,3.40
2022-10-17T21:17:05.200Z,3.72
2022-10-17T21:20:07.922Z,3.60
2022-10-17T21:23:09.657Z,3.88
2022-10-17T21:26:12.816Z,4.45
2022-10-17T21:29:14.793Z,4.57
2022-10-17T21:32:31.830Z,4.03
2022-10-17T21:35:38.326Z,4.20
2022-10-17T21:38:40.985Z,4.40
2022-10-17T21:41:43.953Z,4.20
2022-10-17T21:44:45.889Z,4.10
2022-10-17T21:48:11.241Z,4.57
2022-10-17T21:51:12.131Z,5.15
2022-10-17T21:54:15.082Z,5.63
2022-10-17T22:00:24.412Z,6.18
2022-10-17T22:03:26.347Z,6.45
2022-10-17T22:06:47.105Z,6.75
2022-10-17T22:09:48.881Z,7.07
2022-10-17T22:12:50.965Z,7.25
2022-10-17T22:15:52.641Z,6.50
2022-10-17T22:19:03.092Z,7.05
2022-10-17T22:22:07.786Z,7.43
2022-10-17T22:25:09.865Z,7.55
2022-10-17T22:28:11.539Z,7.72
2022-10-17T22:31:13.405Z,7.20
2022-10-17T22:34:16.428Z,7.15
2022-10-17T22:37:18.262Z,7.47
2022-10-17T22:40:20.283Z,7.90
2022-10-17T22:43:21.976Z,8.32
2022-10-17T22:46:23.930Z,7.70
2022-10-17T22:49:25.883Z,8.05
2022-10-17T22:52:27.965Z,7.82
2022-10-17T22:55:29.793Z,7.60
2022-10-17T22:58:34.121Z,7.93
2022-10-17T23:01:36.247Z,7.80
2022-10-17T23:04:38.091Z,7.47
2022-10-17T23:07:39.780Z,8.10
2022-10-17T23:10:41.896Z,7.85
2022-10-17T23:13:43.891Z,8.30
2022-10-17T23:16:45.910Z,7.72
2022-10-17T23:19:47.654Z,7.55
2022-10-17T23:22:49.310Z,7.63
2022-10-17T23:25:51.578Z,8.25
2022-10-17T23:28:56.406Z,7.97
2022-10-17T23:31:58.369Z,7.95
2022-10-17T23:35:00.292Z,7.85
2022-10-17T23:38:02.404Z,8.00
2022-10-17T23:41:04.769Z,7.57
2022-10-17T23:44:06.730Z,7.95
2022-10-17T23:47:08.493Z,8.20
2022-10-17T23:50:10.301Z,7.88
2022-10-17T23:53:11.994Z,7.80
2022-10-17T23:56:14.155Z,8.18
2022-10-17T23:59:16.617Z,8.50
